Whitesville, Kentucky
Current Conditions -  °F | °C
As of 1:56 PM on Monday 26 Jan 2015 (Local Time) from KOWB Reporting Station
Overcast Overcast  
Wind Chill: 24°   Ceiling: 1400
Heat Index: 31°   Visibility: 10mi
Dew Point: 26°   Wind: 8mph
Humidity: 82%   Direction: 300°WNW
Pressure: 29.96"   Gusts: NA
Location:  37.68°N, 86.87°W
Report Text: KOWB 261956Z 30007KT 10SM OVC014 M01/M03 A2996 RMK AO2 T10051033 SLP149
Loading
Personal Weather Stations






























Interactive Weather Map New forecast layout! Learn more

10-Day Weather Forecast

Advertisements
Track Severe Weather on mobile